TimeCDT,TemperatureF,Dew PointF,Humidity,Sea Level PressureIn,VisibilityMPH,Wind Direction,Wind SpeedMPH,Gust SpeedMPH,PrecipitationIn,Events,Conditions,WindDirDegrees,DateUTC
12:53 AM,72.0,68.0,87,30.14,10.0,East,5.8,-,N/A,,Overcast,90,2012-09-15 05:53:00
1:53 AM,72.0,69.1,91,30.14,9.0,East,6.9,-,N/A,,Overcast,100,2012-09-15 06:53:00
2:20 AM,71.6,69.8,94,30.15,7.0,ESE,4.6,-,0.01,,Overcast,110,2012-09-15 07:20:00
2:42 AM,71.6,69.8,94,30.15,8.0,East,4.6,-,0.01,,Overcast,90,2012-09-15 07:42:00
2:53 AM,71.1,69.1,93,30.13,8.0,East,3.5,-,0.01,,Overcast,100,2012-09-15 07:53:00
3:19 AM,71.6,69.8,94,30.14,9.0,ESE,4.6,-,N/A,,Overcast,110,2012-09-15 08:19:00
3:27 AM,71.6,69.8,94,30.14,9.0,ESE,6.9,-,N/A,,Overcast,110,2012-09-15 08:27:00
3:53 AM,71.1,69.1,93,30.12,4.0,ESE,4.6,-,0.02,Rain,Rain,110,2012-09-15 08:53:00
4:00 AM,71.6,69.8,94,30.13,2.5,ESE,4.6,-,0.02,Rain,Rain,110,2012-09-15 09:00:00
4:08 AM,71.6,69.8,94,30.13,6.0,East,5.8,-,0.02,Rain,Light Rain,100,2012-09-15 09:08:00
4:53 AM,71.1,69.1,93,30.12,7.0,ESE,3.5,-,0.03,Rain,Light Rain,110,2012-09-15 09:53:00
5:53 AM,71.1,69.1,93,30.13,5.0,Calm,Calm,-,0.00,,Overcast,0,2012-09-15 10:53:00
6:53 AM,71.1,69.1,93,30.14,5.0,Calm,Calm,-,0.00,Rain,Light Rain,0,2012-09-15 11:53:00
7:36 AM,71.6,69.8,94,30.15,3.0,ESE,3.5,-,0.00,,Overcast,110,2012-09-15 12:36:00
7:53 AM,71.1,70.0,96,30.14,3.0,ESE,3.5,-,0.00,,Overcast,120,2012-09-15 12:53:00
8:06 AM,71.6,69.8,94,30.15,3.0,ESE,3.5,-,N/A,,Overcast,120,2012-09-15 13:06:00
8:20 AM,71.6,69.8,94,30.15,4.0,Calm,Calm,-,N/A,,Overcast,0,2012-09-15 13:20:00
8:30 AM,71.6,69.8,94,30.15,4.0,Calm,Calm,-,N/A,,Overcast,0,2012-09-15 13:30:00
8:44 AM,71.6,69.8,94,30.15,4.0,ESE,3.5,-,N/A,,Overcast,110,2012-09-15 13:44:00
8:53 AM,72.0,70.0,93,30.14,4.0,ESE,3.5,-,N/A,,Overcast,110,2012-09-15 13:53:00
9:43 AM,71.6,69.8,94,30.15,1.8,ESE,4.6,-,0.01,Rain,Rain,120,2012-09-15 14:43:00
9:50 AM,71.6,69.8,94,30.15,3.0,Calm,Calm,-,0.01,Rain,Light Rain,0,2012-09-15 14:50:00
9:53 AM,72.0,70.0,93,30.14,4.0,Calm,Calm,-,0.01,,Overcast,0,2012-09-15 14:53:00
10:17 AM,71.6,71.6,100,30.15,2.5,Calm,Calm,-,N/A,,Overcast,0,2012-09-15 15:17:00
10:28 AM,71.6,69.8,94,30.15,2.5,SW,4.6,-,N/A,,Overcast,230,2012-09-15 15:28:00
10:53 AM,72.0,70.0,93,30.14,2.5,Calm,Calm,-,N/A,,Overcast,0,2012-09-15 15:53:00
11:03 AM,73.4,71.6,94,30.15,3.0,Variable,3.5,-,N/A,,Overcast,0,2012-09-15 16:03:00
11:25 AM,73.4,69.8,88,30.15,4.0,Calm,Calm,-,N/A,,Overcast,0,2012-09-15 16:25:00
11:53 AM,75.0,71.1,87,30.13,5.0,SW,5.8,-,N/A,,Overcast,230,2012-09-15 16:53:00
12:00 PM,73.4,69.8,88,30.14,6.0,SSW,4.6,-,N/A,,Overcast,200,2012-09-15 17:00:00
12:27 PM,73.4,69.8,88,30.14,5.0,SW,6.9,-,N/A,,Overcast,230,2012-09-15 17:27:00
12:53 PM,75.0,70.0,84,30.12,5.0,West,8.1,-,N/A,,Haze,260,2012-09-15 17:53:00
1:24 PM,75.2,69.8,83,30.13,6.0,West,8.1,-,N/A,,Haze,260,2012-09-15 18:24:00
1:39 PM,75.2,69.8,83,30.13,7.0,WSW,8.1,-,N/A,,Overcast,250,2012-09-15 18:39:00
1:53 PM,75.0,69.1,82,30.11,8.0,West,9.2,-,N/A,,Overcast,270,2012-09-15 18:53:00
2:03 PM,75.2,69.8,83,30.12,8.0,West,8.1,-,N/A,,Overcast,260,2012-09-15 19:03:00
2:11 PM,75.2,69.8,83,30.12,8.0,West,8.1,-,N/A,,Overcast,260,2012-09-15 19:11:00
2:53 PM,75.0,69.1,82,30.09,5.0,West,9.2,-,N/A,,Haze,270,2012-09-15 19:53:00
3:26 PM,73.4,68.0,83,30.10,4.0,WNW,6.9,-,N/A,,Haze,290,2012-09-15 20:26:00
3:33 PM,73.4,68.0,83,30.10,4.0,West,8.1,-,N/A,,Haze,270,2012-09-15 20:33:00
3:41 PM,75.2,69.8,83,30.10,4.0,West,6.9,-,N/A,,Haze,280,2012-09-15 20:41:00
3:48 PM,73.4,68.0,83,30.09,4.0,West,4.6,-,N/A,,Haze,260,2012-09-15 20:48:00
3:53 PM,73.9,68.0,82,30.08,4.0,West,3.5,-,N/A,,Haze,270,2012-09-15 20:53:00
4:03 PM,73.4,68.0,83,30.09,4.0,West,4.6,-,0.00,Rain,Light Rain,260,2012-09-15 21:03:00
4:53 PM,75.0,68.0,79,30.07,4.0,WSW,5.8,-,0.00,,Haze,250,2012-09-15 21:53:00
5:04 PM,75.2,68.0,78,30.08,4.0,WSW,3.5,-,N/A,,Haze,250,2012-09-15 22:04:00
5:42 PM,77.0,68.0,74,30.07,6.0,Calm,Calm,-,N/A,,Haze,0,2012-09-15 22:42:00
5:53 PM,77.0,68.0,74,30.05,6.0,WSW,3.5,-,N/A,,Haze,240,2012-09-15 22:53:00
6:53 PM,75.0,68.0,79,30.05,8.0,SSW,3.5,-,N/A,,Mostly Cloudy,210,2012-09-15 23:53:00
7:53 PM,73.9,69.1,85,30.04,7.0,Calm,Calm,-,N/A,,Overcast,0,2012-09-16 00:53:00
8:53 PM,72.0,69.1,91,30.06,6.0,Calm,Calm,-,N/A,,Mostly Cloudy,0,2012-09-16 01:53:00
9:53 PM,70.0,68.0,93,30.06,3.0,Calm,Calm,-,N/A,,Scattered Clouds,0,2012-09-16 02:53:00
9:58 PM,69.8,68.0,94,30.08,1.8,Calm,Calm,-,N/A,,Partly Cloudy,0,2012-09-16 02:58:00
10:15 PM,69.8,68.0,94,30.08,2.0,Calm,Calm,-,N/A,,Partly Cloudy,0,2012-09-16 03:15:00
10:27 PM,69.8,68.0,94,30.07,1.2,Calm,Calm,-,N/A,,Clear,0,2012-09-16 03:27:00
10:37 PM,69.8,68.0,94,30.08,1.8,Calm,Calm,-,N/A,,Partly Cloudy,0,2012-09-16 03:37:00
10:41 PM,69.8,68.0,94,30.08,3.0,Calm,Calm,-,N/A,,Partly Cloudy,0,2012-09-16 03:41:00
10:53 PM,68.0,66.9,96,30.06,3.0,Calm,Calm,-,N/A,,Clear,0,2012-09-16 03:53:00
11:11 PM,68.0,66.2,94,30.07,3.0,East,3.5,-,N/A,,Clear,100,2012-09-16 04:11:00
11:30 PM,68.0,66.2,94,30.07,1.8,Calm,Calm,-,N/A,,Clear,0,2012-09-16 04:30:00
11:53 PM,68.0,66.9,96,30.06,0.8,Calm,Calm,-,N/A,,Clear,0,2012-09-16 04:53:00